UTA133 UWUU-UWKD
Flight info
| Callsign | UTA133 |
|---|---|
| Flight time | 1h 19m |
| Altitude | 16000 |
| Route | N0240F160 TILMU N985 ORTIM |
| Aircraft | AN24/M-I/L |
Departure
| Time | 2026-04-22 11:06 |
|---|---|
| Airport | Ufa International Airport (UWUU) |
Arrival
| Time | 2026-04-22 12:25 |
|---|---|
| Airport | Kazan International Airport (UWKD) |
| Time | Latitude | Longitude | Altitude | Speed | Heading |
|---|---|---|---|---|---|
| 2026-04-22 10:24 | 54.56115 | 55.88686 | 390 ft | 0 kts | 59° |
| 2026-04-22 10:59 | 54.56115 | 55.88687 | 390 ft | 0 kts | 59° |
| 2026-04-22 11:00 | 54.56123 | 55.88698 | 390 ft | 2 kts | 5° |
| 2026-04-22 11:00 | 54.56144 | 55.88666 | 388 ft | 6 kts | 308° |
| 2026-04-22 11:00 | 54.56139 | 55.88589 | 386 ft | 11 kts | 242° |
| 2026-04-22 11:00 | 54.56164 | 55.88486 | 384 ft | 14 kts | 333° |
| 2026-04-22 11:01 | 54.56282 | 55.88374 | 382 ft | 18 kts | 330° |
| 2026-04-22 11:01 | 54.56384 | 55.88276 | 380 ft | 15 kts | 330° |
| 2026-04-22 11:01 | 54.56412 | 55.88147 | 379 ft | 10 kts | 241° |
| 2026-04-22 11:01 | 54.56354 | 55.87968 | 380 ft | 15 kts | 239° |
| 2026-04-22 11:02 | 54.56307 | 55.87824 | 382 ft | 17 kts | 241° |
| 2026-04-22 11:02 | 54.56257 | 55.87675 | 386 ft | 15 kts | 242° |
| 2026-04-22 11:02 | 54.56215 | 55.87542 | 392 ft | 13 kts | 240° |
| 2026-04-22 11:02 | 54.56161 | 55.87378 | 396 ft | 16 kts | 241° |
| 2026-04-22 11:03 | 54.56102 | 55.87201 | 401 ft | 12 kts | 240° |
| 2026-04-22 11:03 | 54.56050 | 55.87046 | 407 ft | 14 kts | 240° |
| 2026-04-22 11:03 | 54.55991 | 55.86864 | 410 ft | 19 kts | 240° |
| 2026-04-22 11:03 | 54.55932 | 55.86683 | 412 ft | 21 kts | 240° |
| 2026-04-22 11:04 | 54.55851 | 55.86437 | 413 ft | 19 kts | 239° |
| 2026-04-22 11:04 | 54.55769 | 55.86427 | 415 ft | 10 kts | 151° |
| 2026-04-22 11:04 | 54.55732 | 55.86462 | 417 ft | 0 kts | 151° |
| 2026-04-22 11:05 | 54.55728 | 55.86466 | 417 ft | 11 kts | 150° |
| 2026-04-22 11:05 | 54.55422 | 55.86762 | 426 ft | 83 kts | 151° |
| 2026-04-22 11:06 | 54.54782 | 55.87392 | 448 ft | 123 kts | 154° |
| 2026-04-22 11:06 | 54.53968 | 55.88145 | 637 ft | 140 kts | 158° |
| 2026-04-22 11:06 | 54.53068 | 55.88906 | 950 ft | 150 kts | 159° |
| 2026-04-22 11:06 | 54.52087 | 55.89734 | 1195 ft | 165 kts | 159° |
| 2026-04-22 11:07 | 54.51044 | 55.90604 | 1551 ft | 170 kts | 160° |
| 2026-04-22 11:07 | 54.49967 | 55.91508 | 1913 ft | 173 kts | 158° |
| 2026-04-22 11:07 | 54.48984 | 55.92785 | 2152 ft | 187 kts | 136° |
| 2026-04-22 11:07 | 54.48385 | 55.94828 | 2288 ft | 204 kts | 105° |
| 2026-04-22 11:08 | 54.48457 | 55.97263 | 2641 ft | 203 kts | 74° |
| 2026-04-22 11:08 | 54.49129 | 55.99326 | 3036 ft | 197 kts | 46° |
| 2026-04-22 11:08 | 54.50219 | 56.00692 | 3280 ft | 196 kts | 19° |
| 2026-04-22 11:08 | 54.51514 | 56.01129 | 3591 ft | 188 kts | 353° |
| 2026-04-22 11:09 | 54.52740 | 56.00634 | 3897 ft | 179 kts | 329° |
| 2026-04-22 11:09 | 54.53721 | 55.99400 | 4134 ft | 176 kts | 311° |
| 2026-04-22 11:09 | 54.54585 | 55.97960 | 4503 ft | 172 kts | 309° |
| 2026-04-22 11:09 | 54.55383 | 55.96481 | 4843 ft | 168 kts | 304° |
| 2026-04-22 11:10 | 54.56127 | 55.94908 | 5088 ft | 171 kts | 302° |
| 2026-04-22 11:10 | 54.56853 | 55.93262 | 5376 ft | 171 kts | 301° |
| 2026-04-22 11:10 | 54.57538 | 55.91628 | 5698 ft | 168 kts | 299° |
| 2026-04-22 11:10 | 54.58204 | 55.89969 | 5959 ft | 170 kts | 298° |
| 2026-04-22 11:11 | 54.58842 | 55.88298 | 6282 ft | 167 kts | 296° |
| 2026-04-22 11:11 | 54.59443 | 55.86607 | 6583 ft | 166 kts | 295° |
| 2026-04-22 11:11 | 54.60012 | 55.84869 | 6855 ft | 166 kts | 292° |
| 2026-04-22 11:11 | 54.60461 | 55.83099 | 7148 ft | 162 kts | 282° |
| 2026-04-22 11:12 | 54.60558 | 55.81185 | 7303 ft | 164 kts | 261° |
| 2026-04-22 11:12 | 54.60367 | 55.79245 | 7627 ft | 160 kts | 258° |
| 2026-04-22 11:12 | 54.60311 | 55.77396 | 8000 ft | 155 kts | 275° |
| 2026-04-22 11:12 | 54.60550 | 55.75556 | 8172 ft | 161 kts | 277° |
| 2026-04-22 11:13 | 54.60763 | 55.73652 | 8397 ft | 162 kts | 277° |
| 2026-04-22 11:13 | 54.60985 | 55.71771 | 8687 ft | 160 kts | 278° |
| 2026-04-22 11:13 | 54.61208 | 55.69903 | 8928 ft | 159 kts | 277° |
| 2026-04-22 11:13 | 54.61412 | 55.68028 | 9199 ft | 158 kts | 276° |
| 2026-04-22 11:14 | 54.61615 | 55.66198 | 9475 ft | 156 kts | 276° |
| 2026-04-22 11:14 | 54.61816 | 55.64376 | 9737 ft | 155 kts | 276° |
| 2026-04-22 11:14 | 54.62045 | 55.62566 | 10004 ft | 154 kts | 279° |
| 2026-04-22 11:14 | 54.62305 | 55.60766 | 10245 ft | 154 kts | 278° |
| 2026-04-22 11:15 | 54.62554 | 55.58987 | 10459 ft | 155 kts | 278° |
| 2026-04-22 11:15 | 54.62809 | 55.57180 | 10673 ft | 155 kts | 278° |
| 2026-04-22 11:15 | 54.63062 | 55.55380 | 10894 ft | 156 kts | 278° |
| 2026-04-22 11:15 | 54.63317 | 55.53568 | 11103 ft | 156 kts | 278° |
| 2026-04-22 11:16 | 54.63573 | 55.51734 | 11323 ft | 157 kts | 278° |
| 2026-04-22 11:16 | 54.63828 | 55.49923 | 11528 ft | 157 kts | 279° |
| 2026-04-22 11:16 | 54.64083 | 55.48100 | 11742 ft | 156 kts | 278° |
| 2026-04-22 11:16 | 54.64337 | 55.46283 | 11935 ft | 156 kts | 278° |
| 2026-04-22 11:17 | 54.64592 | 55.44456 | 12139 ft | 157 kts | 278° |
| 2026-04-22 11:17 | 54.64849 | 55.42623 | 12326 ft | 159 kts | 278° |
| 2026-04-22 11:17 | 54.65107 | 55.40769 | 12509 ft | 160 kts | 278° |
| 2026-04-22 11:17 | 54.65368 | 55.38892 | 12689 ft | 160 kts | 278° |
| 2026-04-22 11:18 | 54.65626 | 55.37036 | 12872 ft | 160 kts | 278° |
| 2026-04-22 11:18 | 54.65885 | 55.35172 | 13054 ft | 161 kts | 278° |
| 2026-04-22 11:18 | 54.66146 | 55.33293 | 13250 ft | 161 kts | 277° |
| 2026-04-22 11:18 | 54.66405 | 55.31416 | 13449 ft | 161 kts | 277° |
| 2026-04-22 11:19 | 54.66663 | 55.29557 | 13634 ft | 160 kts | 278° |
| 2026-04-22 11:19 | 54.66922 | 55.27678 | 13805 ft | 161 kts | 278° |
| 2026-04-22 11:19 | 54.67181 | 55.25807 | 13978 ft | 162 kts | 278° |
| 2026-04-22 11:19 | 54.67439 | 55.23935 | 14127 ft | 162 kts | 278° |
| 2026-04-22 11:20 | 54.67702 | 55.22026 | 14286 ft | 163 kts | 277° |
| 2026-04-22 11:20 | 54.67962 | 55.20126 | 14418 ft | 164 kts | 277° |
| 2026-04-22 11:20 | 54.68226 | 55.18203 | 14562 ft | 165 kts | 277° |
| 2026-04-22 11:20 | 54.68493 | 55.16251 | 14734 ft | 166 kts | 277° |
| 2026-04-22 11:21 | 54.68757 | 55.14319 | 14883 ft | 167 kts | 277° |
| 2026-04-22 11:21 | 54.69024 | 55.12360 | 15038 ft | 167 kts | 277° |
| 2026-04-22 11:21 | 54.69286 | 55.10433 | 15178 ft | 167 kts | 277° |
| 2026-04-22 11:21 | 54.69553 | 55.08457 | 15326 ft | 167 kts | 277° |
| 2026-04-22 11:22 | 54.69814 | 55.06533 | 15458 ft | 167 kts | 277° |
| 2026-04-22 11:22 | 54.70083 | 55.04563 | 15588 ft | 167 kts | 277° |
| 2026-04-22 11:22 | 54.70347 | 55.02622 | 15696 ft | 169 kts | 277° |
| 2026-04-22 11:22 | 54.70614 | 55.00638 | 15782 ft | 171 kts | 277° |
| 2026-04-22 11:23 | 54.70885 | 54.98626 | 15809 ft | 176 kts | 278° |
| 2026-04-22 11:23 | 54.71169 | 54.96510 | 15809 ft | 182 kts | 278° |
| 2026-04-22 11:23 | 54.71456 | 54.94368 | 15804 ft | 188 kts | 278° |
| 2026-04-22 11:23 | 54.71755 | 54.92147 | 15813 ft | 191 kts | 278° |
| 2026-04-22 11:24 | 54.72060 | 54.89867 | 15821 ft | 194 kts | 278° |
| 2026-04-22 11:24 | 54.72376 | 54.87590 | 15802 ft | 197 kts | 279° |
| 2026-04-22 11:24 | 54.72708 | 54.85300 | 15800 ft | 198 kts | 279° |
| 2026-04-22 11:24 | 54.73042 | 54.83001 | 15825 ft | 198 kts | 279° |
| 2026-04-22 11:25 | 54.73375 | 54.80692 | 15825 ft | 200 kts | 279° |
| 2026-04-22 11:25 | 54.73712 | 54.78349 | 15797 ft | 202 kts | 279° |
| 2026-04-22 11:25 | 54.74056 | 54.75974 | 15823 ft | 202 kts | 279° |
| 2026-04-22 11:25 | 54.74392 | 54.73637 | 15834 ft | 203 kts | 279° |
| 2026-04-22 11:26 | 54.74732 | 54.71268 | 15803 ft | 205 kts | 279° |
| 2026-04-22 11:26 | 54.75076 | 54.68878 | 15802 ft | 205 kts | 279° |
| 2026-04-22 11:26 | 54.75420 | 54.66482 | 15816 ft | 205 kts | 279° |
| 2026-04-22 11:26 | 54.75763 | 54.64088 | 15819 ft | 205 kts | 279° |
| 2026-04-22 11:27 | 54.76103 | 54.61709 | 15810 ft | 206 kts | 279° |
| 2026-04-22 11:27 | 54.76447 | 54.59296 | 15804 ft | 206 kts | 279° |
| 2026-04-22 11:27 | 54.76788 | 54.56903 | 15814 ft | 206 kts | 279° |
| 2026-04-22 11:27 | 54.77129 | 54.54506 | 15791 ft | 207 kts | 279° |
| 2026-04-22 11:28 | 54.77473 | 54.52082 | 15799 ft | 206 kts | 279° |
| 2026-04-22 11:28 | 54.77813 | 54.49694 | 15809 ft | 205 kts | 279° |
| 2026-04-22 11:28 | 54.78156 | 54.47266 | 15799 ft | 206 kts | 279° |
| 2026-04-22 11:28 | 54.78495 | 54.44877 | 15826 ft | 205 kts | 279° |
| 2026-04-22 11:29 | 54.78831 | 54.42490 | 15807 ft | 206 kts | 279° |
| 2026-04-22 11:29 | 54.79169 | 54.40091 | 15796 ft | 206 kts | 279° |
| 2026-04-22 11:29 | 54.79510 | 54.37672 | 15814 ft | 205 kts | 279° |
| 2026-04-22 11:29 | 54.79844 | 54.35292 | 15832 ft | 204 kts | 279° |
| 2026-04-22 11:30 | 54.80183 | 54.32894 | 15792 ft | 207 kts | 279° |
| 2026-04-22 11:30 | 54.80546 | 54.30456 | 15803 ft | 207 kts | 279° |
| 2026-04-22 11:30 | 54.80908 | 54.28050 | 15779 ft | 208 kts | 279° |
| 2026-04-22 11:30 | 54.81272 | 54.25631 | 15794 ft | 207 kts | 279° |
| 2026-04-22 11:31 | 54.81629 | 54.23249 | 15813 ft | 206 kts | 279° |
| 2026-04-22 11:31 | 54.81993 | 54.20818 | 15783 ft | 208 kts | 279° |
| 2026-04-22 11:31 | 54.82350 | 54.18416 | 15785 ft | 207 kts | 279° |
| 2026-04-22 11:31 | 54.82709 | 54.16004 | 15807 ft | 206 kts | 279° |
| 2026-04-22 11:32 | 54.83066 | 54.13602 | 15794 ft | 207 kts | 279° |
| 2026-04-22 11:32 | 54.83427 | 54.11170 | 15791 ft | 207 kts | 279° |
| 2026-04-22 11:32 | 54.83783 | 54.08778 | 15814 ft | 206 kts | 279° |
| 2026-04-22 11:32 | 54.84143 | 54.06354 | 15794 ft | 207 kts | 279° |
| 2026-04-22 11:33 | 54.84499 | 54.03946 | 15797 ft | 207 kts | 279° |
| 2026-04-22 11:33 | 54.84852 | 54.01552 | 15807 ft | 207 kts | 279° |
| 2026-04-22 11:33 | 54.85207 | 53.99136 | 15789 ft | 207 kts | 279° |
| 2026-04-22 11:33 | 54.85561 | 53.96732 | 15810 ft | 207 kts | 279° |
| 2026-04-22 11:34 | 54.85918 | 53.94313 | 15805 ft | 207 kts | 279° |
| 2026-04-22 11:34 | 54.86272 | 53.91900 | 15783 ft | 208 kts | 279° |
| 2026-04-22 11:34 | 54.86626 | 53.89478 | 15800 ft | 207 kts | 279° |
| 2026-04-22 11:34 | 54.86983 | 53.87034 | 15791 ft | 207 kts | 279° |
| 2026-04-22 11:35 | 54.87335 | 53.84615 | 15790 ft | 208 kts | 279° |
| 2026-04-22 11:35 | 54.87690 | 53.82190 | 15790 ft | 207 kts | 279° |
| 2026-04-22 11:35 | 54.88044 | 53.79763 | 15799 ft | 207 kts | 279° |
| 2026-04-22 11:35 | 54.88392 | 53.77371 | 15810 ft | 206 kts | 279° |
| 2026-04-22 11:36 | 54.88742 | 53.74959 | 15795 ft | 207 kts | 279° |
| 2026-04-22 11:36 | 54.89089 | 53.72554 | 15798 ft | 207 kts | 279° |
| 2026-04-22 11:36 | 54.89440 | 53.70123 | 15778 ft | 208 kts | 279° |
| 2026-04-22 11:36 | 54.89791 | 53.67697 | 15798 ft | 207 kts | 279° |
| 2026-04-22 11:37 | 54.90142 | 53.65275 | 15786 ft | 207 kts | 279° |
| 2026-04-22 11:37 | 54.90490 | 53.62858 | 15802 ft | 206 kts | 279° |
| 2026-04-22 11:37 | 54.90833 | 53.60467 | 15782 ft | 207 kts | 279° |
| 2026-04-22 11:37 | 54.91185 | 53.58010 | 15777 ft | 207 kts | 279° |
| 2026-04-22 11:38 | 54.91532 | 53.55634 | 15804 ft | 206 kts | 280° |
| 2026-04-22 11:38 | 54.91906 | 53.53197 | 15795 ft | 207 kts | 281° |
| 2026-04-22 11:38 | 54.92648 | 53.48370 | 15795 ft | 207 kts | 280° |
| 2026-04-22 11:39 | 54.93015 | 53.45973 | 15785 ft | 207 kts | 280° |
| 2026-04-22 11:39 | 54.93383 | 53.43568 | 15792 ft | 207 kts | 281° |
| 2026-04-22 11:39 | 54.93751 | 53.41150 | 15785 ft | 207 kts | 281° |
| 2026-04-22 11:39 | 54.94116 | 53.38750 | 15804 ft | 207 kts | 281° |
| 2026-04-22 11:40 | 54.94485 | 53.36313 | 15778 ft | 208 kts | 280° |
| 2026-04-22 11:40 | 54.94855 | 53.33892 | 15791 ft | 207 kts | 279° |
| 2026-04-22 11:40 | 54.95222 | 53.31483 | 15810 ft | 207 kts | 279° |
| 2026-04-22 11:40 | 54.95586 | 53.29078 | 15777 ft | 208 kts | 279° |
| 2026-04-22 11:41 | 54.95957 | 53.26621 | 15771 ft | 208 kts | 279° |
| 2026-04-22 11:41 | 54.96316 | 53.24209 | 15784 ft | 208 kts | 279° |
| 2026-04-22 11:41 | 54.96662 | 53.21764 | 15783 ft | 208 kts | 278° |
| 2026-04-22 11:41 | 54.97002 | 53.19333 | 15799 ft | 207 kts | 278° |
| 2026-04-22 11:42 | 54.97341 | 53.16902 | 15773 ft | 208 kts | 278° |
| 2026-04-22 11:42 | 54.97684 | 53.14441 | 15794 ft | 207 kts | 278° |
| 2026-04-22 11:42 | 54.98018 | 53.12044 | 15796 ft | 207 kts | 278° |
| 2026-04-22 11:42 | 54.98357 | 53.09601 | 15797 ft | 207 kts | 279° |
| 2026-04-22 11:43 | 54.98694 | 53.07169 | 15793 ft | 207 kts | 279° |
| 2026-04-22 11:43 | 54.99033 | 53.04718 | 15798 ft | 207 kts | 279° |
| 2026-04-22 11:43 | 54.99368 | 53.02292 | 15780 ft | 208 kts | 279° |
| 2026-04-22 11:43 | 54.99706 | 52.99838 | 15775 ft | 208 kts | 279° |
| 2026-04-22 11:44 | 55.00042 | 52.97398 | 15791 ft | 207 kts | 279° |
| 2026-04-22 11:44 | 55.00375 | 52.94971 | 15794 ft | 207 kts | 278° |
| 2026-04-22 11:44 | 55.00707 | 52.92554 | 15807 ft | 207 kts | 279° |
| 2026-04-22 11:44 | 55.01043 | 52.90105 | 15786 ft | 208 kts | 278° |
| 2026-04-22 11:45 | 55.01376 | 52.87660 | 15791 ft | 208 kts | 278° |
| 2026-04-22 11:45 | 55.01708 | 52.85229 | 15787 ft | 208 kts | 278° |
| 2026-04-22 11:45 | 55.02043 | 52.82763 | 15783 ft | 208 kts | 278° |
| 2026-04-22 11:45 | 55.02375 | 52.80321 | 15789 ft | 208 kts | 278° |
| 2026-04-22 11:46 | 55.02709 | 52.77857 | 15786 ft | 208 kts | 278° |
| 2026-04-22 11:46 | 55.03035 | 52.75451 | 15807 ft | 207 kts | 279° |
| 2026-04-22 11:46 | 55.03387 | 52.72993 | 15787 ft | 208 kts | 279° |
| 2026-04-22 11:46 | 55.03744 | 52.70550 | 15779 ft | 208 kts | 279° |
| 2026-04-22 11:47 | 55.04102 | 52.68103 | 15801 ft | 207 kts | 280° |
| 2026-04-22 11:47 | 55.04456 | 52.65678 | 15788 ft | 208 kts | 280° |
| 2026-04-22 11:47 | 55.04810 | 52.63245 | 15792 ft | 208 kts | 280° |
| 2026-04-22 11:47 | 55.05161 | 52.60823 | 15782 ft | 208 kts | 279° |
| 2026-04-22 11:48 | 55.05515 | 52.58371 | 15764 ft | 209 kts | 280° |
| 2026-04-22 11:48 | 55.05870 | 52.55923 | 15781 ft | 208 kts | 279° |
| 2026-04-22 11:48 | 55.06225 | 52.53471 | 15756 ft | 209 kts | 279° |
| 2026-04-22 11:48 | 55.06581 | 52.51003 | 15770 ft | 208 kts | 279° |
| 2026-04-22 11:49 | 55.06929 | 52.48584 | 15781 ft | 208 kts | 279° |
| 2026-04-22 11:49 | 55.07280 | 52.46139 | 15762 ft | 209 kts | 279° |
| 2026-04-22 11:49 | 55.07634 | 52.43673 | 15780 ft | 208 kts | 279° |
| 2026-04-22 11:49 | 55.07988 | 52.41205 | 15755 ft | 209 kts | 279° |
| 2026-04-22 11:50 | 55.08340 | 52.38746 | 15755 ft | 209 kts | 279° |
| 2026-04-22 11:50 | 55.08689 | 52.36301 | 15775 ft | 208 kts | 279° |
| 2026-04-22 11:50 | 55.09034 | 52.33881 | 15766 ft | 208 kts | 279° |
| 2026-04-22 11:50 | 55.09381 | 52.31435 | 15776 ft | 208 kts | 279° |
| 2026-04-22 11:51 | 55.09734 | 52.28951 | 15765 ft | 209 kts | 279° |
| 2026-04-22 11:51 | 55.10082 | 52.26507 | 15772 ft | 208 kts | 279° |
| 2026-04-22 11:51 | 55.10431 | 52.24045 | 15750 ft | 209 kts | 279° |
| 2026-04-22 11:51 | 55.10779 | 52.21579 | 15768 ft | 208 kts | 279° |
| 2026-04-22 11:52 | 55.11122 | 52.19147 | 15759 ft | 208 kts | 279° |
| 2026-04-22 11:52 | 55.11469 | 52.16684 | 15769 ft | 208 kts | 279° |
| 2026-04-22 11:52 | 55.11811 | 52.14265 | 15791 ft | 207 kts | 279° |
| 2026-04-22 11:52 | 55.12156 | 52.11813 | 15763 ft | 208 kts | 279° |
| 2026-04-22 11:53 | 55.12501 | 52.09347 | 15762 ft | 208 kts | 279° |
| 2026-04-22 11:53 | 55.12839 | 52.06932 | 15784 ft | 207 kts | 279° |
| 2026-04-22 11:53 | 55.13181 | 52.04481 | 15775 ft | 208 kts | 279° |
| 2026-04-22 11:53 | 55.13524 | 52.02030 | 15792 ft | 207 kts | 279° |
| 2026-04-22 11:54 | 55.13865 | 51.99589 | 15772 ft | 208 kts | 279° |
| 2026-04-22 11:54 | 55.14205 | 51.97141 | 15783 ft | 208 kts | 279° |
| 2026-04-22 11:54 | 55.14550 | 51.94660 | 15765 ft | 209 kts | 279° |
| 2026-04-22 11:54 | 55.14891 | 51.92199 | 15777 ft | 209 kts | 279° |
| 2026-04-22 11:55 | 55.15231 | 51.89744 | 15794 ft | 208 kts | 279° |
| 2026-04-22 11:55 | 55.15570 | 51.87288 | 15785 ft | 209 kts | 279° |
| 2026-04-22 11:55 | 55.15908 | 51.84845 | 15808 ft | 208 kts | 279° |
| 2026-04-22 11:55 | 55.16247 | 51.82386 | 15797 ft | 208 kts | 279° |
| 2026-04-22 11:56 | 55.16585 | 51.79925 | 15791 ft | 208 kts | 279° |
| 2026-04-22 11:56 | 55.16924 | 51.77466 | 15799 ft | 208 kts | 279° |
| 2026-04-22 11:56 | 55.17262 | 51.75001 | 15782 ft | 209 kts | 279° |
| 2026-04-22 11:56 | 55.17598 | 51.72544 | 15804 ft | 208 kts | 279° |
| 2026-04-22 11:57 | 55.17931 | 51.70107 | 15789 ft | 208 kts | 279° |
| 2026-04-22 11:57 | 55.18268 | 51.67643 | 15799 ft | 208 kts | 279° |
| 2026-04-22 11:57 | 55.18602 | 51.65192 | 15804 ft | 208 kts | 279° |
| 2026-04-22 11:57 | 55.18933 | 51.62757 | 15783 ft | 209 kts | 279° |
| 2026-04-22 11:58 | 55.19268 | 51.60286 | 15793 ft | 209 kts | 279° |
| 2026-04-22 11:58 | 55.19603 | 51.57817 | 15778 ft | 209 kts | 279° |
| 2026-04-22 11:58 | 55.19937 | 51.55349 | 15797 ft | 208 kts | 279° |
| 2026-04-22 11:58 | 55.20270 | 51.52880 | 15791 ft | 209 kts | 279° |
| 2026-04-22 11:59 | 55.20606 | 51.50390 | 15784 ft | 209 kts | 279° |
| 2026-04-22 11:59 | 55.20936 | 51.47951 | 15797 ft | 209 kts | 279° |
| 2026-04-22 11:59 | 55.21271 | 51.45463 | 15779 ft | 209 kts | 279° |
| 2026-04-22 11:59 | 55.21603 | 51.42987 | 15800 ft | 208 kts | 279° |
| 2026-04-22 12:00 | 55.21931 | 51.40537 | 15779 ft | 209 kts | 279° |
| 2026-04-22 12:00 | 55.22265 | 51.38033 | 15768 ft | 209 kts | 279° |
| 2026-04-22 12:00 | 55.22596 | 51.35566 | 15784 ft | 208 kts | 279° |
| 2026-04-22 12:00 | 55.22921 | 51.33135 | 15769 ft | 209 kts | 278° |
| 2026-04-22 12:01 | 55.23254 | 51.30627 | 15782 ft | 209 kts | 278° |
| 2026-04-22 12:01 | 55.23582 | 51.28149 | 15769 ft | 210 kts | 278° |
| 2026-04-22 12:01 | 55.23910 | 51.25677 | 15778 ft | 210 kts | 278° |
| 2026-04-22 12:01 | 55.24241 | 51.23186 | 15777 ft | 210 kts | 278° |
| 2026-04-22 12:02 | 55.24569 | 51.20705 | 15758 ft | 211 kts | 278° |
| 2026-04-22 12:02 | 55.24895 | 51.18227 | 15785 ft | 210 kts | 278° |
| 2026-04-22 12:02 | 55.25224 | 51.15732 | 15778 ft | 210 kts | 278° |
| 2026-04-22 12:02 | 55.25550 | 51.13244 | 15771 ft | 210 kts | 278° |
| 2026-04-22 12:03 | 55.25880 | 51.10738 | 15803 ft | 209 kts | 278° |
| 2026-04-22 12:03 | 55.26205 | 51.08260 | 15795 ft | 209 kts | 278° |
| 2026-04-22 12:03 | 55.26529 | 51.05783 | 15800 ft | 209 kts | 278° |
| 2026-04-22 12:03 | 55.26848 | 51.03333 | 15804 ft | 209 kts | 278° |
| 2026-04-22 12:04 | 55.27175 | 51.00822 | 15794 ft | 210 kts | 278° |
| 2026-04-22 12:04 | 55.27497 | 50.98352 | 15808 ft | 209 kts | 278° |
| 2026-04-22 12:04 | 55.27819 | 50.95874 | 15786 ft | 210 kts | 278° |
| 2026-04-22 12:04 | 55.28141 | 50.93386 | 15792 ft | 210 kts | 278° |
| 2026-04-22 12:05 | 55.28463 | 50.90888 | 15796 ft | 210 kts | 278° |
| 2026-04-22 12:05 | 55.28766 | 50.88367 | 15783 ft | 210 kts | 277° |
| 2026-04-22 12:05 | 55.29060 | 50.85884 | 15804 ft | 209 kts | 277° |
| 2026-04-22 12:05 | 55.29356 | 50.83382 | 15792 ft | 210 kts | 277° |
| 2026-04-22 12:06 | 55.29651 | 50.80889 | 15800 ft | 210 kts | 277° |
| 2026-04-22 12:06 | 55.29943 | 50.78404 | 15787 ft | 210 kts | 277° |
| 2026-04-22 12:06 | 55.30230 | 50.75894 | 15776 ft | 210 kts | 277° |
| 2026-04-22 12:06 | 55.30502 | 50.73396 | 15790 ft | 210 kts | 276° |
| 2026-04-22 12:07 | 55.30767 | 50.70848 | 15768 ft | 211 kts | 277° |
| 2026-04-22 12:07 | 55.31031 | 50.68337 | 15771 ft | 211 kts | 276° |
| 2026-04-22 12:07 | 55.31295 | 50.65792 | 15750 ft | 212 kts | 276° |
| 2026-04-22 12:07 | 55.31556 | 50.63261 | 15771 ft | 211 kts | 276° |
| 2026-04-22 12:08 | 55.31799 | 50.60723 | 15768 ft | 211 kts | 275° |
| 2026-04-22 12:08 | 55.32028 | 50.58214 | 15790 ft | 210 kts | 275° |
| 2026-04-22 12:08 | 55.32259 | 50.55692 | 15797 ft | 210 kts | 275° |
| 2026-04-22 12:08 | 55.32492 | 50.53121 | 15774 ft | 211 kts | 276° |
| 2026-04-22 12:09 | 55.32723 | 50.50577 | 15769 ft | 211 kts | 276° |
| 2026-04-22 12:09 | 55.32928 | 50.48127 | 15645 ft | 201 kts | 274° |
| 2026-04-22 12:09 | 55.33135 | 50.45683 | 15176 ft | 204 kts | 276° |
| 2026-04-22 12:09 | 55.33355 | 50.43261 | 14791 ft | 202 kts | 276° |
| 2026-04-22 12:10 | 55.33560 | 50.40859 | 14414 ft | 200 kts | 275° |
| 2026-04-22 12:10 | 55.33757 | 50.38450 | 13977 ft | 201 kts | 275° |
| 2026-04-22 12:10 | 55.33963 | 50.36028 | 13573 ft | 201 kts | 277° |
| 2026-04-22 12:10 | 55.34193 | 50.33628 | 13203 ft | 199 kts | 276° |
| 2026-04-22 12:11 | 55.34420 | 50.31246 | 12811 ft | 199 kts | 277° |
| 2026-04-22 12:11 | 55.34677 | 50.28847 | 12394 ft | 199 kts | 278° |
| 2026-04-22 12:11 | 55.34919 | 50.26476 | 12028 ft | 198 kts | 278° |
| 2026-04-22 12:11 | 55.35180 | 50.24116 | 11663 ft | 196 kts | 279° |
| 2026-04-22 12:12 | 55.35446 | 50.21801 | 11268 ft | 197 kts | 280° |
| 2026-04-22 12:12 | 55.35713 | 50.19434 | 10873 ft | 196 kts | 280° |
| 2026-04-22 12:12 | 55.35971 | 50.17106 | 10512 ft | 195 kts | 280° |
| 2026-04-22 12:12 | 55.36216 | 50.14768 | 10117 ft | 195 kts | 279° |
| 2026-04-22 12:13 | 55.36445 | 50.12421 | 9712 ft | 196 kts | 279° |
| 2026-04-22 12:13 | 55.36664 | 50.10059 | 9337 ft | 195 kts | 279° |
| 2026-04-22 12:13 | 55.36903 | 50.07755 | 8977 ft | 194 kts | 281° |
| 2026-04-22 12:13 | 55.37166 | 50.05416 | 8603 ft | 193 kts | 281° |
| 2026-04-22 12:14 | 55.37420 | 50.03141 | 8245 ft | 192 kts | 281° |
| 2026-04-22 12:14 | 55.37689 | 50.00833 | 7879 ft | 191 kts | 285° |
| 2026-04-22 12:14 | 55.38181 | 49.98684 | 7491 ft | 191 kts | 296° |
| 2026-04-22 12:14 | 55.38789 | 49.96669 | 7173 ft | 188 kts | 298° |
| 2026-04-22 12:15 | 55.39433 | 49.94658 | 6793 ft | 188 kts | 298° |
| 2026-04-22 12:15 | 55.40072 | 49.92652 | 6328 ft | 192 kts | 299° |
| 2026-04-22 12:15 | 55.40724 | 49.90619 | 5905 ft | 193 kts | 299° |
| 2026-04-22 12:15 | 55.41394 | 49.88564 | 5468 ft | 194 kts | 299° |
| 2026-04-22 12:16 | 55.42080 | 49.86526 | 5001 ft | 197 kts | 300° |
| 2026-04-22 12:16 | 55.42789 | 49.84498 | 4650 ft | 193 kts | 301° |
| 2026-04-22 12:16 | 55.43506 | 49.82496 | 4106 ft | 199 kts | 300° |
| 2026-04-22 12:16 | 55.44224 | 49.80392 | 3534 ft | 204 kts | 300° |
| 2026-04-22 12:17 | 55.44948 | 49.78271 | 3028 ft | 205 kts | 300° |
| 2026-04-22 12:17 | 55.45681 | 49.76087 | 2502 ft | 205 kts | 299° |
| 2026-04-22 12:17 | 55.46346 | 49.73982 | 2334 ft | 190 kts | 298° |
| 2026-04-22 12:17 | 55.46993 | 49.72065 | 2251 ft | 174 kts | 300° |
| 2026-04-22 12:18 | 55.47599 | 49.70320 | 2180 ft | 160 kts | 299° |
| 2026-04-22 12:18 | 55.48184 | 49.68675 | 2198 ft | 156 kts | 301° |
| 2026-04-22 12:18 | 55.48741 | 49.67089 | 2243 ft | 153 kts | 299° |
| 2026-04-22 12:18 | 55.49295 | 49.65452 | 2282 ft | 155 kts | 298° |
| 2026-04-22 12:19 | 55.49807 | 49.63885 | 2343 ft | 146 kts | 298° |
| 2026-04-22 12:19 | 55.50346 | 49.62280 | 2215 ft | 155 kts | 300° |
| 2026-04-22 12:19 | 55.50919 | 49.60737 | 2241 ft | 147 kts | 302° |
| 2026-04-22 12:19 | 55.51459 | 49.59240 | 2211 ft | 144 kts | 301° |
| 2026-04-22 12:20 | 55.51977 | 49.57797 | 2250 ft | 133 kts | 300° |
| 2026-04-22 12:20 | 55.52403 | 49.56362 | 2185 ft | 134 kts | 291° |
| 2026-04-22 12:20 | 55.52733 | 49.54801 | 2105 ft | 135 kts | 291° |
| 2026-04-22 12:20 | 55.53126 | 49.53332 | 2094 ft | 132 kts | 293° |
| 2026-04-22 12:21 | 55.53521 | 49.51836 | 2005 ft | 134 kts | 294° |
| 2026-04-22 12:21 | 55.53893 | 49.50406 | 2077 ft | 122 kts | 291° |
| 2026-04-22 12:21 | 55.54256 | 49.49060 | 2062 ft | 120 kts | 296° |
| 2026-04-22 12:21 | 55.54606 | 49.47736 | 2054 ft | 117 kts | 289° |
| 2026-04-22 12:22 | 55.54890 | 49.46403 | 2001 ft | 118 kts | 286° |
| 2026-04-22 12:22 | 55.55109 | 49.44991 | 1914 ft | 119 kts | 283° |
| 2026-04-22 12:22 | 55.55379 | 49.43604 | 1824 ft | 118 kts | 290° |
| 2026-04-22 12:22 | 55.55665 | 49.42238 | 1701 ft | 121 kts | 289° |
| 2026-04-22 12:23 | 55.55979 | 49.40908 | 1706 ft | 114 kts | 292° |
| 2026-04-22 12:23 | 55.56294 | 49.39600 | 1620 ft | 118 kts | 286° |
| 2026-04-22 12:23 | 55.56586 | 49.38242 | 1577 ft | 116 kts | 294° |
| 2026-04-22 12:23 | 55.56967 | 49.36960 | 1435 ft | 120 kts | 304° |
| 2026-04-22 12:24 | 55.57512 | 49.35839 | 1261 ft | 123 kts | 311° |
| 2026-04-22 12:24 | 55.58011 | 49.34656 | 1106 ft | 120 kts | 296° |
| 2026-04-22 12:24 | 55.58483 | 49.33418 | 910 ft | 120 kts | 304° |
| 2026-04-22 12:24 | 55.58952 | 49.32212 | 749 ft | 120 kts | 300° |
| 2026-04-22 12:25 | 55.59429 | 49.30972 | 576 ft | 122 kts | 300° |
| 2026-04-22 12:25 | 55.59911 | 49.29726 | 439 ft | 116 kts | 303° |
| 2026-04-22 12:25 | 55.60305 | 49.28713 | 424 ft | 82 kts | 301° |
| 2026-04-22 12:25 | 55.60540 | 49.28103 | 424 ft | 43 kts | 304° |
| 2026-04-22 12:26 | 55.60674 | 49.27750 | 424 ft | 27 kts | 301° |
| 2026-04-22 12:26 | 55.60767 | 49.27515 | 424 ft | 19 kts | 306° |
| 2026-04-22 12:26 | 55.60860 | 49.27279 | 424 ft | 23 kts | 304° |
| 2026-04-22 12:26 | 55.60943 | 49.27063 | 424 ft | 22 kts | 304° |
| 2026-04-22 12:27 | 55.61062 | 49.26788 | 424 ft | 21 kts | 337° |
| 2026-04-22 12:27 | 55.61171 | 49.26868 | 424 ft | 15 kts | 34° |
| 2026-04-22 12:27 | 55.61198 | 49.26901 | 424 ft | 0 kts | 36° |
| 2026-04-22 12:28 | 55.61200 | 49.26904 | 424 ft | 3 kts | 36° |
| 2026-04-22 12:28 | 55.61216 | 49.27016 | 424 ft | 10 kts | 129° |
| 2026-04-22 12:28 | 55.61151 | 49.27179 | 424 ft | 25 kts | 124° |
| 2026-04-22 12:29 | 55.61052 | 49.27440 | 424 ft | 23 kts | 126° |
| 2026-04-22 12:29 | 55.60959 | 49.27701 | 424 ft | 31 kts | 130° |
| 2026-04-22 12:29 | 55.60842 | 49.27978 | 424 ft | 25 kts | 124° |
| 2026-04-22 12:29 | 55.60750 | 49.28207 | 424 ft | 23 kts | 122° |
| 2026-04-22 12:30 | 55.60592 | 49.28695 | 424 ft | 19 kts | 95° |
| 2026-04-22 12:30 | 55.60579 | 49.28983 | 424 ft | 22 kts | 95° |
| 2026-04-22 12:30 | 55.60621 | 49.29195 | 424 ft | 17 kts | 36° |
| 2026-04-22 12:31 | 55.60731 | 49.29326 | 424 ft | 17 kts | 38° |
| 2026-04-22 12:31 | 55.60703 | 49.29461 | 424 ft | 11 kts | 122° |
| 2026-04-22 12:31 | 55.60664 | 49.29562 | 424 ft | 8 kts | 126° |
| 2026-04-22 12:31 | 55.60675 | 49.29659 | 424 ft | 8 kts | 33° |
| 2026-04-22 12:32 | 55.60685 | 49.29671 | 424 ft | 0 kts | 33° |